Time;durP1;ratioP1;P1;durP2;ratioP2;P2;SDS_P1;SDS_P2;PMS_P1;PMS_P2;Temp;Humidity;BMP_temperature;BMP_pressure;BME280_temperature;BME280_humidity;BME280_pressure;Samples;Min_cycle;Max_cycle;Signal;HPM_P1;HPM_P2
2021/11/30 00:01:09;;;;;;;;;;;22.90;48.30;;;;;;5094180;28;19980;-64
2021/11/30 00:03:35;;;;;;;;;;;22.90;48.30;;;;;;5094607;28;20364;-64
2021/11/30 00:06:01;;;;;;;;;;;22.90;48.30;;;;;;5094495;28;20621;-63
2021/11/30 00:08:32;;;;;;;;;;;22.90;48.30;;;;;;5094478;28;19908;-63
2021/11/30 00:10:58;;;;;;;;;;;22.80;48.20;;;;;;5093897;28;19908;-65
2021/11/30 00:13:25;;;;;;;;;;;22.80;48.20;;;;;;5094431;28;19922;-64
2021/11/30 00:15:53;;;;;;;;;;;22.80;48.20;;;;;;5093867;28;19912;-63
2021/11/30 00:18:19;;;;;;;;;;;22.80;48.20;;;;;;5094362;28;19912;-63
2021/11/30 00:20:45;;;;;;;;;;;22.80;48.20;;;;;;5094269;28;20360;-64
2021/11/30 00:23:12;;;;;;;;;;;22.80;48.20;;;;;;5094167;28;19927;-64
2021/11/30 00:25:38;;;;;;;;;;;22.80;48.20;;;;;;5094159;28;19922;-64
2021/11/30 00:28:04;;;;;;;;;;;22.70;48.10;;;;;;5094213;28;20002;-64
2021/11/30 00:30:31;;;;;;;;;;;22.70;48.20;;;;;;5093689;28;20392;-63
2021/11/30 00:32:58;;;;;;;;;;;22.70;48.10;;;;;;5094061;28;19916;-64
2021/11/30 00:35:23;;;;;;;;;;;22.70;48.20;;;;;;5093845;28;19908;-64
2021/11/30 00:37:49;;;;;;;;;;;22.70;48.10;;;;;;5093831;28;19914;-64
2021/11/30 00:40:15;;;;;;;;;;;22.70;48.20;;;;;;5093876;28;20404;-64
2021/11/30 00:42:40;;;;;;;;;;;22.70;48.10;;;;;;5093802;28;19975;-65
2021/11/30 00:45:08;;;;;;;;;;;22.70;48.10;;;;;;5093276;28;19913;-63
2021/11/30 00:47:34;;;;;;;;;;;22.70;48.10;;;;;;5093733;28;19958;-65
2021/11/30 00:50:00;;;;;;;;;;;22.70;48.10;;;;;;5075539;28;19934;-64
2021/11/30 00:52:26;;;;;;;;;;;22.70;48.10;;;;;;5075450;28;20455;-64
2021/11/30 00:54:52;;;;;;;;;;;22.60;48.10;;;;;;5093574;28;20002;-65
2021/11/30 00:57:17;;;;;;;;;;;22.60;48.10;;;;;;5093578;28;19908;-63
2021/11/30 00:59:43;;;;;;;;;;;22.60;48.10;;;;;;5092987;28;19908;-64
2021/11/30 01:02:09;;;;;;;;;;;22.60;48.70;;;;;;5093420;28;19908;-64
2021/11/30 01:04:34;;;;;;;;;;;22.60;48.10;;;;;;5093463;28;19907;-64
2021/11/30 01:07:00;;;;;;;;;;;22.60;48.10;;;;;;5075137;28;20407;-63
2021/11/30 01:09:25;;;;;;;;;;;22.60;48.00;;;;;;5093332;28;19955;-65
2021/11/30 01:11:51;;;;;;;;;;;22.60;48.00;;;;;;5093129;28;19959;-65
2021/11/30 01:14:16;;;;;;;;;;;22.50;48.00;;;;;;5092918;28;20120;-65
2021/11/30 01:16:43;;;;;;;;;;;22.50;48.00;;;;;;5093218;28;19997;-63
2021/11/30 01:19:08;;;;;;;;;;;22.50;48.00;;;;;;5093132;28;19915;-64
2021/11/30 01:21:34;;;;;;;;;;;22.50;48.00;;;;;;5092713;28;19924;-65
2021/11/30 01:24:00;;;;;;;;;;;22.50;48.00;;;;;;5092329;28;19914;-65
2021/11/30 01:26:25;;;;;;;;;;;22.50;48.00;;;;;;5093013;28;20281;-65
2021/11/30 01:28:51;;;;;;;;;;;22.50;48.00;;;;;;5092501;28;19934;-64
2021/11/30 01:31:16;;;;;;;;;;;22.40;47.90;;;;;;5092953;28;20260;-65
2021/11/30 01:33:42;;;;;;;;;;;22.40;47.90;;;;;;5092840;28;20351;-65
2021/11/30 01:36:07;;;;;;;;;;;22.40;47.90;;;;;;5074575;28;19908;-64
2021/11/30 01:38:34;;;;;;;;;;;22.40;48.50;;;;;;5092802;28;19909;-65
2021/11/30 01:41:01;;;;;;;;;;;22.40;47.90;;;;;;5092754;28;19916;-64
2021/11/30 01:43:33;;;;;;;;;;;22.40;47.90;;;;;;5092370;28;19953;-64
2021/11/30 01:46:12;;;;;;;;;;;22.40;47.80;;;;;;5092733;28;20011;-65
2021/11/30 01:51:22;;;;;;;;;;;22.40;47.90;;;;;;5092882;28;19915;-64
2021/11/30 01:53:48;;;;;;;;;;;22.30;47.80;;;;;;5092634;28;19917;-64
2021/11/30 01:56:14;;;;;;;;;;;22.30;47.80;;;;;;5092671;28;19912;-64
2021/11/30 01:58:40;;;;;;;;;;;22.30;47.80;;;;;;5092007;28;19964;-63
2021/11/30 02:01:06;;;;;;;;;;;22.30;47.80;;;;;;5092425;28;19908;-64
2021/11/30 02:03:33;;;;;;;;;;;22.30;47.80;;;;;;5092379;28;19973;-64
2021/11/30 02:05:59;;;;;;;;;;;22.30;47.80;;;;;;5092342;28;19914;-64
2021/11/30 02:08:24;;;;;;;;;;;22.30;47.80;;;;;;5092222;28;19908;-64
2021/11/30 02:10:50;;;;;;;;;;;22.30;47.80;;;;;;5092280;28;19957;-64
2021/11/30 02:13:15;;;;;;;;;;;22.30;47.80;;;;;;5091666;28;19969;-63
2021/11/30 02:15:46;;;;;;;;;;;22.20;47.70;;;;;;5092255;28;19916;-64
2021/11/30 02:18:13;;;;;;;;;;;22.20;47.70;;;;;;5092259;28;19912;-64
2021/11/30 02:20:41;;;;;;;;;;;22.20;47.70;;;;;;5092198;28;20352;-63
2021/11/30 02:23:14;;;;;;;;;;;22.20;47.70;;;;;;5091945;28;19920;-64
2021/11/30 02:25:40;;;;;;;;;;;22.20;47.70;;;;;;5091709;28;19912;-63
2021/11/30 02:28:05;;;;;;;;;;;22.10;47.70;;;;;;5092073;28;20326;-66
2021/11/30 02:30:31;;;;;;;;;;;22.10;47.60;;;;;;5073807;28;19908;-64
2021/11/30 02:32:56;;;;;;;;;;;22.10;47.60;;;;;;5091891;28;19916;-64
2021/11/30 02:35:21;;;;;;;;;;;22.10;47.60;;;;;;5091636;28;19908;-64
2021/11/30 02:37:50;;;;;;;;;;;22.10;47.60;;;;;;5092055;28;19909;-63
2021/11/30 02:40:16;;;;;;;;;;;22.10;47.70;;;;;;5091388;28;19908;-65
2021/11/30 02:42:42;;;;;;;;;;;22.10;47.70;;;;;;5091963;28;20275;-64
2021/11/30 02:45:08;;;;;;;;;;;22.00;47.60;;;;;;5091763;28;20371;-63
2021/11/30 02:47:33;;;;;;;;;;;22.00;47.60;;;;;;5091783;28;19915;-64
2021/11/30 02:49:59;;;;;;;;;;;22.00;47.60;;;;;;5092152;28;19908;-65
2021/11/30 02:52:27;;;;;;;;;;;22.00;47.60;;;;;;5091816;28;19922;-64
2021/11/30 02:54:53;;;;;;;;;;;22.00;47.60;;;;;;5091329;28;19915;-64
2021/11/30 02:57:19;;;;;;;;;;;22.00;47.60;;;;;;5091768;28;19987;-64
2021/11/30 02:59:46;;;;;;;;;;;22.00;47.60;;;;;;5091767;28;19908;-65
2021/11/30 03:02:15;;;;;;;;;;;22.00;47.60;;;;;;5091679;28;19953;-63
2021/11/30 03:04:41;;;;;;;;;;;22.00;47.60;;;;;;5091719;28;19975;-64
2021/11/30 03:07:11;;;;;;;;;;;21.90;47.50;;;;;;5091740;28;19908;-64
2021/11/30 03:09:37;;;;;;;;;;;21.90;47.60;;;;;;5091084;28;19915;-64
2021/11/30 03:12:03;;;;;;;;;;;21.90;47.50;;;;;;5091474;28;19915;-65
2021/11/30 03:14:29;;;;;;;;;;;21.90;47.50;;;;;;5091491;28;19977;-63
2021/11/30 03:16:54;;;;;;;;;;;21.90;47.50;;;;;;5091627;28;19908;-63
2021/11/30 03:19:20;;;;;;;;;;;21.90;47.50;;;;;;5091503;28;19912;-64
2021/11/30 03:21:47;;;;;;;;;;;21.90;47.50;;;;;;5091387;28;19949;-64
2021/11/30 03:24:12;;;;;;;;;;;21.90;47.50;;;;;;5090958;28;19953;-65
2021/11/30 03:26:38;;;;;;;;;;;21.80;48.10;;;;;;5073247;28;19908;-64
2021/11/30 03:29:03;;;;;;;;;;;21.80;47.40;;;;;;5073447;28;19914;-64
2021/11/30 03:34:17;;;;;;;;;;;21.80;47.50;;;;;;5091639;28;19920;-64
2021/11/30 03:36:44;;;;;;;;;;;21.80;47.40;;;;;;5091511;28;20284;-64
2021/11/30 03:39:11;;;;;;;;;;;21.80;47.40;;;;;;5090906;28;19916;-63
2021/11/30 03:41:37;;;;;;;;;;;21.70;47.40;;;;;;5091238;28;20002;-63
2021/11/30 03:44:03;;;;;;;;;;;21.80;47.40;;;;;;5091459;28;20383;-66
2021/11/30 03:46:30;;;;;;;;;;;21.70;47.30;;;;;;5093143;28;19908;-63
2021/11/30 03:48:55;;;;;;;;;;;21.70;47.40;;;;;;5095082;28;19915;-63
2021/11/30 03:51:21;;;;;;;;;;;21.70;47.40;;;;;;5094735;28;20311;-64
2021/11/30 03:53:46;;;;;;;;;;;21.70;47.40;;;;;;5094180;28;19923;-64
2021/11/30 03:56:12;;;;;;;;;;;21.70;47.40;;;;;;5094718;28;19908;-63
2021/11/30 03:58:37;;;;;;;;;;;21.70;47.30;;;;;;5094679;28;19908;-65
2021/11/30 04:01:03;;;;;;;;;;;21.70;47.30;;;;;;5076534;28;19953;-64
2021/11/30 04:03:32;;;;;;;;;;;21.70;47.40;;;;;;5094535;28;19908;-64
2021/11/30 04:05:58;;;;;;;;;;;21.70;47.30;;;;;;5094478;28;19908;-64
2021/11/30 04:08:23;;;;;;;;;;;21.70;47.40;;;;;;5093843;28;20360;-64
2021/11/30 04:10:49;;;;;;;;;;;21.70;47.30;;;;;;5094486;28;19915;-65
2021/11/30 04:13:14;;;;;;;;;;;21.60;47.30;;;;;;5094389;28;19986;-63
2021/11/30 04:15:40;;;;;;;;;;;21.60;47.30;;;;;;5094521;28;19918;-64
2021/11/30 04:18:05;;;;;;;;;;;21.60;47.30;;;;;;5094414;28;20241;-64
2021/11/30 04:20:31;;;;;;;;;;;21.60;47.30;;;;;;5094290;28;19908;-64
2021/11/30 04:22:56;;;;;;;;;;;21.60;47.30;;;;;;5075513;28;20440;-64
2021/11/30 04:25:22;;;;;;;;;;;21.60;47.30;;;;;;5076032;28;19916;-64
2021/11/30 04:27:47;;;;;;;;;;;21.60;47.30;;;;;;5094243;28;19961;-64
2021/11/30 04:30:13;;;;;;;;;;;21.50;47.30;;;;;;5094272;28;20372;-64
2021/11/30 04:32:39;;;;;;;;;;;21.50;47.30;;;;;;5093894;28;20452;-65
2021/11/30 04:35:04;;;;;;;;;;;21.50;47.30;;;;;;5093989;28;20380;-63
2021/11/30 04:37:30;;;;;;;;;;;21.50;47.30;;;;;;5093383;28;20268;-64
2021/11/30 04:39:55;;;;;;;;;;;21.50;47.30;;;;;;5093975;28;19936;-64
2021/11/30 04:42:25;;;;;;;;;;;21.50;47.30;;;;;;5093851;28;19909;-64
2021/11/30 04:44:56;;;;;;;;;;;21.50;47.30;;;;;;5093807;28;19909;-64
2021/11/30 04:47:24;;;;;;;;;;;21.50;47.30;;;;;;5093807;28;19995;-64
2021/11/30 04:49:58;;;;;;;;;;;21.50;47.30;;;;;;5093734;28;20045;-65
2021/11/30 04:52:24;;;;;;;;;;;21.50;47.30;;;;;;5093135;28;19974;-64
2021/11/30 04:54:49;;;;;;;;;;;21.40;47.20;;;;;;5093602;28;20376;-63
2021/11/30 04:57:15;;;;;;;;;;;21.40;47.20;;;;;;5093420;28;20002;-64
2021/11/30 04:59:40;;;;;;;;;;;21.40;47.20;;;;;;5093502;28;19915;-64
2021/11/30 05:02:06;;;;;;;;;;;21.40;47.20;;;;;;5075344;28;19930;-63
2021/11/30 05:04:31;;;;;;;;;;;21.40;47.20;;;;;;5093340;28;19908;-64
2021/11/30 05:06:57;;;;;;;;;;;21.40;47.20;;;;;;5092780;28;19919;-62
2021/11/30 05:09:23;;;;;;;;;;;21.40;47.20;;;;;;5075283;28;19912;-63
2021/11/30 05:11:48;;;;;;;;;;;21.40;47.20;;;;;;5093243;28;19908;-64
2021/11/30 05:14:13;;;;;;;;;;;21.40;47.20;;;;;;5093373;28;19912;-63
2021/11/30 05:16:39;;;;;;;;;;;21.30;47.20;;;;;;5093126;28;19947;-64
2021/11/30 05:19:05;;;;;;;;;;;21.30;47.20;;;;;;5093120;28;20192;-64
2021/11/30 05:21:30;;;;;;;;;;;21.30;47.20;;;;;;5092394;28;19921;-64
2021/11/30 05:24:01;;;;;;;;;;;21.30;47.20;;;;;;5093059;28;20380;-65
2021/11/30 05:26:27;;;;;;;;;;;21.30;47.20;;;;;;5093094;28;19916;-64
2021/11/30 05:28:52;;;;;;;;;;;21.30;47.20;;;;;;5092974;28;19908;-64
2021/11/30 05:31:18;;;;;;;;;;;21.30;47.20;;;;;;5092929;28;19909;-63
2021/11/30 05:33:44;;;;;;;;;;;21.30;47.20;;;;;;5092698;28;20403;-64
2021/11/30 05:36:11;;;;;;;;;;;21.30;47.20;;;;;;5092258;28;19908;-64
2021/11/30 05:38:37;;;;;;;;;;;21.30;47.20;;;;;;5092768;28;19912;-63
2021/11/30 05:41:03;;;;;;;;;;;21.30;47.20;;;;;;5092737;28;20574;-64
2021/11/30 05:43:28;;;;;;;;;;;21.30;47.20;;;;;;5074471;28;20015;-64
2021/11/30 05:45:54;;;;;;;;;;;21.30;47.20;;;;;;5092666;28;20373;-63
2021/11/30 05:48:19;;;;;;;;;;;21.20;47.10;;;;;;5074399;28;19928;-63
2021/11/30 05:50:45;;;;;;;;;;;21.20;47.10;;;;;;5092040;28;20360;-64
2021/11/30 05:53:10;;;;;;;;;;;21.30;47.20;;;;;;5092458;28;19970;-63
2021/11/30 05:55:36;;;;;;;;;;;21.20;47.10;;;;;;5092508;28;19908;-63
2021/11/30 05:58:02;;;;;;;;;;;21.20;47.20;;;;;;5092415;28;20291;-64
2021/11/30 06:00:30;;;;;;;;;;;21.20;47.10;;;;;;5092443;28;19962;-63
2021/11/30 06:03:02;;;;;;;;;;;21.20;47.10;;;;;;5074514;28;19908;-63
2021/11/30 06:05:28;;;;;;;;;;;21.20;47.10;;;;;;5092073;28;19916;-63
2021/11/30 06:07:54;;;;;;;;;;;21.20;47.10;;;;;;5092089;28;19909;-62
2021/11/30 06:10:19;;;;;;;;;;;21.20;47.10;;;;;;5091908;28;19915;-63
2021/11/30 06:12:45;;;;;;;;;;;21.30;47.20;;;;;;5092181;28;20011;-64
2021/11/30 06:15:10;;;;;;;;;;;21.20;47.10;;;;;;5092302;28;19914;-65
2021/11/30 06:17:36;;;;;;;;;;;21.20;47.10;;;;;;5091675;28;19908;-63
2021/11/30 06:20:02;;;;;;;;;;;21.20;47.10;;;;;;5092044;28;19962;-62
2021/11/30 06:22:27;;;;;;;;;;;21.20;47.20;;;;;;5091838;28;19927;-64
2021/11/30 06:24:53;;;;;;;;;;;21.20;47.20;;;;;;5092044;28;19912;-62
2021/11/30 06:27:18;;;;;;;;;;;21.20;47.20;;;;;;5073938;28;20105;-66
2021/11/30 06:29:44;;;;;;;;;;;21.20;47.30;;;;;;5073964;28;19951;-67
2021/11/30 06:32:12;;;;;;;;;;;21.20;47.30;;;;;;5091409;28;19927;-63
2021/11/30 06:34:37;;;;;;;;;;;21.20;47.30;;;;;;5091959;28;19908;-65
2021/11/30 06:37:07;;;;;;;;;;;21.20;47.30;;;;;;5091984;28;19919;-67
2021/11/30 06:39:33;;;;;;;;;;;21.20;47.20;;;;;;5073804;28;20418;-68
2021/11/30 06:41:58;;;;;;;;;;;21.20;47.30;;;;;;5091847;28;19934;-65
2021/11/30 06:44:24;;;;;;;;;;;21.30;47.30;;;;;;5091910;28;19915;-61
2021/11/30 06:46:49;;;;;;;;;;;21.30;47.30;;;;;;5091397;28;20001;-62
2021/11/30 06:49:15;;;;;;;;;;;21.30;47.30;;;;;;5091749;28;19908;-63
2021/11/30 06:51:40;;;;;;;;;;;21.40;47.40;;;;;;5091835;28;19908;-62
2021/11/30 06:54:06;;;;;;;;;;;21.40;47.50;;;;;;5091645;28;20402;-64
2021/11/30 06:56:31;;;;;;;;;;;21.40;47.50;;;;;;5091797;28;19916;-66
2021/11/30 06:58:57;;;;;;;;;;;21.50;47.60;;;;;;5091748;28;19908;-63
2021/11/30 07:01:22;;;;;;;;;;;21.50;47.60;;;;;;5091702;28;19908;-61
2021/11/30 07:03:49;;;;;;;;;;;21.50;47.60;;;;;;5091754;28;20360;-63
2021/11/30 07:11:23;;;;;;;;;;;21.60;48.40;;;;;;5091732;28;19912;-64
2021/11/30 07:13:49;;;;;;;;;;;21.60;47.80;;;;;;5091511;28;19916;-63
2021/11/30 07:16:15;;;;;;;;;;;21.60;47.80;;;;;;5091122;28;19918;-69
2021/11/30 07:18:40;;;;;;;;;;;21.70;47.90;;;;;;5073437;28;20363;-67
2021/11/30 07:21:06;;;;;;;;;;;21.70;47.90;;;;;;5092687;28;19951;-67
2021/11/30 07:23:32;;;;;;;;;;;21.60;47.90;;;;;;5095396;28;19908;-68
2021/11/30 07:25:58;;;;;;;;;;;21.70;48.00;;;;;;5095304;28;19931;-67
2021/11/30 07:28:29;;;;;;;;;;;21.70;47.90;;;;;;5095230;28;20369;-66
2021/11/30 07:30:55;;;;;;;;;;;21.70;47.90;;;;;;5094793;28;19977;-67
2021/11/30 07:33:21;;;;;;;;;;;21.70;47.90;;;;;;5095315;28;19986;-66
2021/11/30 07:35:46;;;;;;;;;;;21.70;47.90;;;;;;5095042;28;20371;-62
2021/11/30 07:38:12;;;;;;;;;;;21.70;47.90;;;;;;5095081;28;19935;-64
2021/11/30 07:40:37;;;;;;;;;;;21.70;47.90;;;;;;5095032;28;19947;-62
2021/11/30 07:43:03;;;;;;;;;;;21.80;48.00;;;;;;5095455;28;19908;-61
2021/11/30 07:45:29;;;;;;;;;;;21.80;48.00;;;;;;5084154;28;19924;-60
2021/11/30 07:47:54;;;;;;;;;;;21.80;48.00;;;;;;5093753;28;19908;-59
2021/11/30 07:50:19;;;;;;;;;;;21.80;48.00;;;;;;5094776;28;19912;-60
2021/11/30 07:52:46;;;;;;;;;;;21.80;48.00;;;;;;5091581;28;19916;-61
2021/11/30 07:55:13;;;;;;;;;;;21.80;48.00;;;;;;5102568;28;19914;-61
2021/11/30 07:57:38;;;;;;;;;;;21.80;48.10;;;;;;5114927;28;19961;-61
2021/11/30 08:00:09;;;;;;;;;;;21.80;48.00;;;;;;5114524;28;19912;-61
2021/11/30 08:02:35;;;;;;;;;;;21.80;48.00;;;;;;5114922;28;19914;-60
2021/11/30 08:05:00;;;;;;;;;;;21.80;48.10;;;;;;5114761;28;19911;-61
2021/11/30 08:07:25;;;;;;;;;;;21.80;48.10;;;;;;5114815;28;19933;-60
2021/11/30 08:09:51;;;;;;;;;;;21.80;48.00;;;;;;5114647;28;19950;-61
2021/11/30 08:12:17;;;;;;;;;;;21.80;48.00;;;;;;5114466;28;19920;-62
2021/11/30 08:14:42;;;;;;;;;;;21.80;48.10;;;;;;5114020;28;19960;-62
2021/11/30 08:17:13;;;;;;;;;;;21.80;48.10;;;;;;5114720;28;19961;-61
2021/11/30 08:19:40;;;;;;;;;;;21.80;48.10;;;;;;5114527;28;19908;-61
2021/11/30 08:22:06;;;;;;;;;;;21.80;48.10;;;;;;5114291;28;19928;-61
2021/11/30 08:24:31;;;;;;;;;;;21.80;48.10;;;;;;5114340;28;19912;-61
2021/11/30 08:26:56;;;;;;;;;;;21.80;48.10;;;;;;5096195;28;19908;-61
2021/11/30 08:29:22;;;;;;;;;;;21.80;48.00;;;;;;5114118;28;19914;-61
2021/11/30 08:31:47;;;;;;;;;;;21.80;48.10;;;;;;5091217;28;19935;-61
2021/11/30 08:34:13;;;;;;;;;;;21.90;48.10;;;;;;5093802;28;19912;-60
2021/11/30 08:36:38;;;;;;;;;;;21.90;48.10;;;;;;5093418;28;19908;-60
2021/11/30 08:39:04;;;;;;;;;;;21.90;48.10;;;;;;5093782;28;20311;-59
2021/11/30 08:41:29;;;;;;;;;;;21.80;48.10;;;;;;5093758;28;19912;-61
2021/11/30 08:43:55;;;;;;;;;;;21.90;48.10;;;;;;5093076;28;20021;-60
2021/11/30 08:46:20;;;;;;;;;;;21.90;48.10;;;;;;5093821;28;19912;-60
2021/11/30 08:48:46;;;;;;;;;;;21.90;48.10;;;;;;5093671;28;20387;-60
2021/11/30 08:51:11;;;;;;;;;;;21.90;48.10;;;;;;5093674;28;20334;-62
2021/11/30 08:53:37;;;;;;;;;;;21.90;48.10;;;;;;5093125;28;19916;-61
2021/11/30 08:56:03;;;;;;;;;;;21.90;48.10;;;;;;5113453;28;20018;-65
2021/11/30 08:58:28;;;;;;;;;;;21.90;48.10;;;;;;5113276;28;20276;-64
2021/11/30 09:00:55;;;;;;;;;;;21.90;48.20;;;;;;5113676;28;19959;-62
2021/11/30 09:03:20;;;;;;;;;;;21.90;48.20;;;;;;5114120;28;19926;-64
2021/11/30 09:05:46;;;;;;;;;;;21.90;48.20;;;;;;5113453;28;19908;-61
2021/11/30 09:08:11;;;;;;;;;;;21.90;48.20;;;;;;5113597;28;19930;-62
2021/11/30 09:10:37;;;;;;;;;;;21.90;48.20;;;;;;5113532;28;19918;-64
2021/11/30 09:13:03;;;;;;;;;;;21.90;48.20;;;;;;5112909;28;20007;-67
2021/11/30 09:15:28;;;;;;;;;;;21.90;48.20;;;;;;5113543;28;19915;-65
2021/11/30 09:17:55;;;;;;;;;;;22.00;48.30;;;;;;5095238;28;19908;-65
2021/11/30 09:20:20;;;;;;;;;;;22.00;48.30;;;;;;5095157;28;19911;-61
2021/11/30 09:22:46;;;;;;;;;;;22.00;48.30;;;;;;5113391;28;19927;-63
2021/11/30 09:25:12;;;;;;;;;;;22.00;48.30;;;;;;5113206;28;19918;-63
2021/11/30 09:27:38;;;;;;;;;;;22.00;48.30;;;;;;5112653;28;19908;-62
2021/11/30 09:30:05;;;;;;;;;;;22.00;48.30;;;;;;5113088;28;19912;-61
2021/11/30 09:32:31;;;;;;;;;;;22.00;48.40;;;;;;5113019;28;19933;-61
2021/11/30 09:34:57;;;;;;;;;;;22.00;48.30;;;;;;5094754;28;19907;-61
2021/11/30 09:37:22;;;;;;;;;;;22.00;48.30;;;;;;5112781;28;19908;-61
2021/11/30 09:39:48;;;;;;;;;;;22.00;48.40;;;;;;5112883;28;19930;-61
2021/11/30 09:42:15;;;;;;;;;;;22.00;48.40;;;;;;5112481;28;20124;-61
2021/11/30 09:44:41;;;;;;;;;;;22.00;48.40;;;;;;5112239;28;20314;-60
2021/11/30 09:47:07;;;;;;;;;;;22.00;48.30;;;;;;5112494;28;20394;-61
2021/11/30 09:49:32;;;;;;;;;;;22.00;48.40;;;;;;5112880;28;19912;-61
2021/11/30 09:51:58;;;;;;;;;;;22.00;48.40;;;;;;5112553;28;19919;-61
2021/11/30 09:54:23;;;;;;;;;;;22.00;48.40;;;;;;5112753;28;19912;-61
2021/11/30 09:56:49;;;;;;;;;;;22.00;48.40;;;;;;5112121;28;20048;-62
2021/11/30 09:59:14;;;;;;;;;;;22.00;48.40;;;;;;5095930;28;19908;-60
2021/11/30 10:01:40;;;;;;;;;;;22.00;48.40;;;;;;5101857;28;19912;-61
2021/11/30 10:04:05;;;;;;;;;;;22.00;48.40;;;;;;5092259;28;19908;-61
2021/11/30 10:06:31;;;;;;;;;;;22.00;48.40;;;;;;5074091;28;20322;-61
2021/11/30 10:08:57;;;;;;;;;;;22.00;48.40;;;;;;5092005;28;20311;-61
2021/11/30 10:11:38;;;;;;;;;;;22.00;48.40;;;;;;5091633;28;19908;-62
2021/11/30 10:14:15;;;;;;;;;;;22.00;48.40;;;;;;5091972;28;20360;-61
2021/11/30 10:16:43;;;;;;;;;;;22.00;48.40;;;;;;5092036;28;19995;-62
2021/11/30 10:19:08;;;;;;;;;;;22.00;48.40;;;;;;5091927;28;19908;-61
2021/11/30 10:21:35;;;;;;;;;;;22.00;48.40;;;;;;5073691;28;19974;-62
2021/11/30 10:24:05;;;;;;;;;;;22.00;48.50;;;;;;5092026;28;19979;-60
2021/11/30 10:26:38;;;;;;;;;;;21.90;48.40;;;;;;5091895;28;19919;-61
2021/11/30 10:29:04;;;;;;;;;;;22.00;48.50;;;;;;5091751;28;20002;-62
2021/11/30 10:31:32;;;;;;;;;;;22.00;48.50;;;;;;5091911;28;20074;-62
2021/11/30 10:33:58;;;;;;;;;;;22.00;48.50;;;;;;5091955;28;20027;-63
2021/11/30 10:36:24;;;;;;;;;;;22.00;48.50;;;;;;5091595;28;19916;-64
2021/11/30 10:38:50;;;;;;;;;;;22.00;48.50;;;;;;5091595;28;20329;-63
2021/11/30 10:41:23;;;;;;;;;;;22.00;48.50;;;;;;5091806;28;20364;-61
2021/11/30 10:43:54;;;;;;;;;;;22.00;48.50;;;;;;5091643;28;19908;-64
2021/11/30 10:46:20;;;;;;;;;;;22.00;48.50;;;;;;5081037;28;20057;-62
2021/11/30 10:48:46;;;;;;;;;;;22.00;48.50;;;;;;5112233;28;19947;-66
2021/11/30 10:51:11;;;;;;;;;;;22.10;48.60;;;;;;5111962;28;20432;-62
2021/11/30 10:53:37;;;;;;;;;;;22.10;48.60;;;;;;5111648;28;20003;-60
2021/11/30 10:56:04;;;;;;;;;;;22.10;48.70;;;;;;5115083;28;20401;-66
2021/11/30 10:58:30;;;;;;;;;;;22.10;48.70;;;;;;5116076;28;19908;-63
2021/11/30 11:00:57;;;;;;;;;;;22.10;48.70;;;;;;5116017;28;19915;-62
2021/11/30 11:03:23;;;;;;;;;;;22.20;48.80;;;;;;5116092;28;19950;-63
2021/11/30 11:08:43;;;;;;;;;;;22.20;48.80;;;;;;5114427;28;19945;-61
2021/11/30 11:11:09;;;;;;;;;;;22.20;48.90;;;;;;5115993;28;20006;-62
2021/11/30 11:13:37;;;;;;;;;;;22.20;48.90;;;;;;5097649;28;20011;-60
2021/11/30 11:16:04;;;;;;;;;;;22.30;49.00;;;;;;5087185;28;20329;-65
2021/11/30 11:18:31;;;;;;;;;;;22.30;48.90;;;;;;5092912;28;19908;-71
2021/11/30 11:21:13;;;;;;;;;;;22.30;48.90;;;;;;5074360;28;20406;-63
2021/11/30 11:23:43;;;;;;;;;;;22.30;48.90;;;;;;5092210;28;19920;-63
2021/11/30 11:26:14;;;;;;;;;;;22.30;48.90;;;;;;5092773;28;19973;-64
2021/11/30 11:28:39;;;;;;;;;;;22.30;48.90;;;;;;5092483;28;19915;-64
2021/11/30 11:31:05;;;;;;;;;;;22.30;48.90;;;;;;5092748;28;19910;-64
2021/11/30 11:33:30;;;;;;;;;;;22.30;48.90;;;;;;5090572;28;20035;-64
2021/11/30 11:35:56;;;;;;;;;;;22.30;48.90;;;;;;5079982;28;20001;-62
2021/11/30 11:38:21;;;;;;;;;;;22.30;48.90;;;;;;5092915;28;20355;-63
2021/11/30 11:40:47;;;;;;;;;;;22.30;48.90;;;;;;5094641;28;19916;-62
2021/11/30 11:43:14;;;;;;;;;;;22.30;49.50;;;;;;5094367;28;19908;-64
2021/11/30 11:45:40;;;;;;;;;;;22.20;48.90;;;;;;5094839;28;19954;-63
2021/11/30 11:48:06;;;;;;;;;;;22.20;48.90;;;;;;5094879;28;19908;-64
2021/11/30 11:50:48;;;;;;;;;;;22.20;48.90;;;;;;5094736;28;19919;-63
2021/11/30 11:53:27;;;;;;;;;;;22.20;48.90;;;;;;5094143;28;19916;-63
2021/11/30 11:56:06;;;;;;;;;;;22.20;48.90;;;;;;5094675;28;19908;-63
2021/11/30 11:58:32;;;;;;;;;;;22.20;48.90;;;;;;5094437;28;20364;-63
2021/11/30 12:00:58;;;;;;;;;;;22.20;48.90;;;;;;5094297;28;19922;-62
2021/11/30 12:03:43;;;;;;;;;;;22.20;48.90;;;;;;5094485;28;19908;-63
2021/11/30 12:06:16;;;;;;;;;;;22.10;48.90;;;;;;5093193;28;20344;-62
2021/11/30 12:09:01;;;;;;;;;;;22.20;48.90;;;;;;5094346;28;19909;-63
2021/11/30 12:11:34;;;;;;;;;;;22.20;49.00;;;;;;5094203;28;19909;-63
2021/11/30 12:14:07;;;;;;;;;;;22.10;48.90;;;;;;5091397;28;19922;-62
2021/11/30 12:16:53;;;;;;;;;;;22.10;48.90;;;;;;5114655;28;19908;-65
2021/11/30 12:19:28;;;;;;;;;;;22.10;48.90;;;;;;5114480;28;19922;-64
2021/11/30 12:21:54;;;;;;;;;;;22.20;48.90;;;;;;5113830;28;19919;-65
2021/11/30 12:24:33;;;;;;;;;;;22.20;48.80;;;;;;5106974;28;20037;-65
2021/11/30 12:26:59;;;;;;;;;;;22.20;48.80;;;;;;5093936;28;20350;-65
2021/11/30 12:29:30;;;;;;;;;;;22.20;48.80;;;;;;5094031;28;19908;-66
2021/11/30 12:31:56;;;;;;;;;;;22.20;48.70;;;;;;5093971;28;19909;-65
2021/11/30 12:34:32;;;;;;;;;;;22.20;48.70;;;;;;5093889;28;20321;-61
2021/11/30 12:37:04;;;;;;;;;;;22.20;48.70;;;;;;5091811;28;19920;-65
2021/11/30 12:39:50;;;;;;;;;;;22.20;48.70;;;;;;5093916;28;20337;-65
2021/11/30 12:42:15;;;;;;;;;;;22.20;48.70;;;;;;5096617;28;19909;-66
2021/11/30 12:44:41;;;;;;;;;;;22.20;48.60;;;;;;5093569;28;19915;-66
2021/11/30 12:47:17;;;;;;;;;;;22.20;48.60;;;;;;5093657;28;19915;-66
2021/11/30 12:49:44;;;;;;;;;;;22.20;48.60;;;;;;5093127;28;19908;-65
2021/11/30 12:52:12;;;;;;;;;;;22.20;48.60;;;;;;5093538;28;20025;-65
2021/11/30 12:54:39;;;;;;;;;;;22.20;48.60;;;;;;5093470;28;20009;-65
2021/11/30 12:57:06;;;;;;;;;;;22.20;48.60;;;;;;5093792;28;19974;-67
2021/11/30 12:59:37;;;;;;;;;;;22.20;48.60;;;;;;5093339;28;19912;-65
2021/11/30 13:02:20;;;;;;;;;;;22.20;48.60;;;;;;5093413;28;19915;-67
2021/11/30 13:04:48;;;;;;;;;;;22.20;48.60;;;;;;5092790;28;20348;-66
2021/11/30 13:07:16;;;;;;;;;;;22.20;48.60;;;;;;5107781;28;19915;-68
2021/11/30 13:09:41;;;;;;;;;;;22.20;48.60;;;;;;5099546;28;19916;-65
2021/11/30 13:12:12;;;;;;;;;;;22.20;48.60;;;;;;5091631;28;19909;-66
2021/11/30 13:14:38;;;;;;;;;;;22.30;48.60;;;;;;5108371;28;19920;-66
2021/11/30 13:17:04;;;;;;;;;;;22.20;48.60;;;;;;5113462;28;20359;-66
2021/11/30 13:19:35;;;;;;;;;;;22.30;48.60;;;;;;5113166;28;19947;-66
2021/11/30 13:22:00;;;;;;;;;;;22.30;48.70;;;;;;5113209;28;20405;-66
2021/11/30 13:24:41;;;;;;;;;;;22.30;48.60;;;;;;5113365;28;19907;-65
2021/11/30 13:27:09;;;;;;;;;;;22.30;48.70;;;;;;5113246;28;19911;-64
2021/11/30 13:29:35;;;;;;;;;;;22.30;48.70;;;;;;5113312;28;20351;-66
2021/11/30 13:32:01;;;;;;;;;;;22.30;48.80;;;;;;5113160;28;19911;-65
2021/11/30 13:34:27;;;;;;;;;;;22.20;48.70;;;;;;5112777;28;19919;-67
2021/11/30 13:36:52;;;;;;;;;;;22.20;48.70;;;;;;5112936;28;20356;-67
2021/11/30 13:39:17;;;;;;;;;;;22.20;48.70;;;;;;5112777;28;19947;-68
2021/11/30 13:41:43;;;;;;;;;;;22.20;48.70;;;;;;5096486;28;19916;-66
2021/11/30 13:44:08;;;;;;;;;;;22.20;48.80;;;;;;5095163;28;19916;-65
2021/11/30 13:46:36;;;;;;;;;;;22.20;48.80;;;;;;5112897;28;20057;-66
2021/11/30 13:49:04;;;;;;;;;;;22.20;48.80;;;;;;5094048;28;20044;-66
2021/11/30 13:51:31;;;;;;;;;;;22.20;48.80;;;;;;5113266;28;19911;-65
2021/11/30 13:54:08;;;;;;;;;;;22.20;48.80;;;;;;5112572;28;20295;-65
2021/11/30 13:56:42;;;;;;;;;;;22.20;48.80;;;;;;5094444;28;20011;-65
2021/11/30 14:04:08;;;;;;;;;;;22.20;48.90;;;;;;5112912;28;19907;-66
2021/11/30 14:06:34;;;;;;;;;;;22.20;48.90;;;;;;5112524;28;19911;-67
2021/11/30 14:09:05;;;;;;;;;;;22.20;48.90;;;;;;5112494;28;19957;-66
2021/11/30 14:11:30;;;;;;;;;;;22.20;48.90;;;;;;5109682;28;19914;-65
2021/11/30 14:13:56;;;;;;;;;;;22.20;48.90;;;;;;5092281;28;20380;-67
2021/11/30 14:16:24;;;;;;;;;;;22.30;48.90;;;;;;5091605;28;19914;-68
2021/11/30 14:18:52;;;;;;;;;;;22.20;48.80;;;;;;5091924;28;19930;-66
2021/11/30 14:21:17;;;;;;;;;;;22.30;48.90;;;;;;5073693;28;20329;-67
2021/11/30 14:23:43;;;;;;;;;;;22.30;48.90;;;;;;5092054;28;19923;-67
2021/11/30 14:26:23;;;;;;;;;;;22.30;48.80;;;;;;5091938;28;20018;-67
2021/11/30 14:29:00;;;;;;;;;;;22.30;48.80;;;;;;5073732;28;19908;-65
2021/11/30 14:31:25;;;;;;;;;;;22.40;48.90;;;;;;5091034;28;19908;-67
2021/11/30 14:33:51;;;;;;;;;;;22.40;48.90;;;;;;5091822;28;19920;-65